Bella Una — WDF6443 — position and weather

sailwx.info

Track history (hours):
 
Tides and Currents Weather Stations Pressure Air Temp Water Temp Dewpoint Dewpoint Depression Visibility Wind Speed Wind Dir Waves Ship Positions

Bella Una

Owner: Bella Una, LLC, Fort Lauderdale, FL. More information available from US FCC via Universal Licensing System and Coast Guard Vessel Documentation Center.

Last reported at 2017-May-25 03:00 UTC. Time now 2017-May-25 03:08 UTC.
Position N 42°23' W 070°51'.

Length 39 m; draft 2.2 m.

Type: Pleasure craft. MMSI: 366609000.

Date/timePositionNaut miles runAvg speedWind from/ knotsBaromVisibWave heightAir tempDewpointWater temp
2017-May-25 03:00N 42°23' W 070°51'612.2
2017-May-25 02:30N 42°19' W 070°44'713.0
2017-May-25 01:57N 42°13' W 070°39'17310.9
2017-May-24 10:06N 40°45' W 073°58'114.3
2017-May-24 10:00N 40°44' W 073°58'611.5
2017-May-24 09:30N 40°39' W 074°03'813.9
2017-May-24 08:57N 40°32' W 074°01'4712.4
2017-May-24 05:10N 39°45' W 074°02'213.2
2017-May-24 04:59N 39°43' W 074°03'713.2
2017-May-24 04:30N 39°37' W 074°06'60 8.1
2017-May-23 21:06N 39°14' W 075°18'113.4
2017-May-23 21:00N 39°15' W 075°19'713.6
2017-May-23 20:30N 39°20' W 075°25'815.2
2017-May-23 20:00N 39°25' W 075°31'713.9
2017-May-23 19:30N 39°32' W 075°33'510.5
2017-May-23 19:00N 39°33' W 075°39'611.6
2017-May-23 18:30N 39°32' W 075°47'510.3
2017-May-23 18:01N 39°31' W 075°53'612.0
2017-May-23 17:30N 39°27' W 075°59'611.8
2017-May-23 17:00N 39°23' W 076°05'2611.2
2017-May-23 14:41N 39°01' W 076°22'410.7
2017-May-23 14:20N 38°58' W 076°25'3 3.1
2017-May-23 13:25N 38°58' W 076°29'0 0.0
2017-May-23 12:50N 38°58' W 076°29'0 0.0
2017-May-23 12:20N 38°58' W 076°29'0 0.0
2017-May-23 10:45N 38°58' W 076°29'0 0.0
2017-May-23 09:42N 38°58' W 076°29'0 0.0
2017-May-23 08:44N 38°58' W 076°29'0 0.0
2017-May-23 08:28N 38°58' W 076°29'0 0.0
2017-May-23 07:53N 38°58' W 076°29'0 0.0
2017-May-23 07:30N 38°58' W 076°29'0 0.0
2017-May-23 07:01N 38°58' W 076°29'0 0.0
2017-May-23 06:25N 38°58' W 076°29'0 0.0
2017-May-23 02:57N 38°58' W 076°29'0 0.0
2017-May-23 01:42N 38°58' W 076°29'0 0.0
2017-May-23 01:31N 38°58' W 076°29'0 0.0
2017-May-23 01:01N 38°58' W 076°29'0 0.0
2017-May-23 00:27N 38°58' W 076°29'0 0.0
2017-May-22 23:31N 38°58' W 076°29'0 0.0
2017-May-22 23:30N 38°58' W 076°29'0 0.0
2017-May-22 19:24N 38°58' W 076°29'0 0.0
2017-May-22 03:40N 38°58' W 076°29'0 0.0
2017-May-22 03:22N 38°58' W 076°29'0 0.0
2017-May-22 02:58N 38°58' W 076°29'0 0.0
2017-May-22 02:28N 38°58' W 076°29'0 0.0
2017-May-22 01:57N 38°58' W 076°29'0 0.0
2017-May-21 11:09N 38°58' W 076°29'0 0.0
2017-May-21 10:59N 38°58' W 076°29'0 0.0
2017-May-21 10:25N 38°58' W 076°29'0 0.0
2017-May-21 09:18N 38°58' W 076°29'0 0.0
2017-May-21 09:00N 38°58' W 076°29'0 0.0
2017-May-21 08:29N 38°58' W 076°29'1 0.0
2017-May-20 16:47N 38°59' W 076°28'3 8.3
2017-May-20 16:28N 38°58' W 076°25'610.2
2017-May-20 15:51N 39°04' W 076°24'810.4
2017-May-20 15:03N 39°12' W 076°29'211.4
2017-May-20 14:55N 39°12' W 076°31'410.1
2017-May-20 14:30N 39°15' W 076°34'2 2.4
2017-May-20 13:31N 39°17' W 076°36'0 0.0
2017-May-20 13:00N 39°17' W 076°36'0 0.0
2017-May-20 12:31N 39°17' W 076°36'0 0.0
2017-May-20 12:00N 39°17' W 076°36'0 0.0
2017-May-20 11:30N 39°17' W 076°36'0 0.0
2017-May-20 11:00N 39°17' W 076°36'0 0.0
2017-May-20 10:30N 39°17' W 076°36'0 0.0
2017-May-20 10:00N 39°17' W 076°36'0 0.0
2017-May-20 09:31N 39°17' W 076°36'0 0.0
2017-May-20 09:00N 39°17' W 076°36'0 0.0
2017-May-20 08:31N 39°17' W 076°36'0 0.0
2017-May-20 08:00N 39°17' W 076°36'0 0.0
2017-May-20 07:30N 39°17' W 076°36'0 0.0
2017-May-20 07:00N 39°17' W 076°36'0 0.0
2017-May-20 06:30N 39°17' W 076°36'0 0.0
2017-May-20 06:00N 39°17' W 076°36'0 0.0
2017-May-20 05:30N 39°17' W 076°36'0 0.0
2017-May-20 05:00N 39°17' W 076°36'0 0.0
2017-May-20 04:30N 39°17' W 076°36'0 0.0
2017-May-20 04:00N 39°17' W 076°36'0 0.0
2017-May-20 03:30N 39°17' W 076°36'0 0.0
2017-May-20 03:00N 39°17' W 076°36'0 0.0
2017-May-20 02:31N 39°17' W 076°36'0 0.0
2017-May-20 02:00N 39°17' W 076°36'0 0.0
2017-May-20 01:30N 39°17' W 076°36'0 0.0
2017-May-20 01:01N 39°17' W 076°36'0 0.0
2017-May-20 00:30N 39°17' W 076°36'0 0.0
2017-May-20 00:00N 39°17' W 076°36'0 0.0
2017-May-19 23:29N 39°17' W 076°36'0 0.0
2017-May-19 23:00N 39°17' W 076°36'0 0.0
2017-May-19 22:30N 39°17' W 076°36'0 0.0
2017-May-19 22:00N 39°17' W 076°36'0 0.0
2017-May-19 21:30N 39°17' W 076°36'0 0.0
2017-May-19 20:58N 39°17' W 076°36'0 0.0
2017-May-19 20:30N 39°17' W 076°36'0 0.0
2017-May-19 20:00N 39°17' W 076°36'0 0.0
2017-May-19 19:30N 39°17' W 076°36'0 0.0
2017-May-19 19:00N 39°17' W 076°36'0 0.0
2017-May-19 18:30N 39°17' W 076°36'0 0.0
2017-May-19 18:00N 39°17' W 076°36'0 0.0
2017-May-19 17:30N 39°17' W 076°36'0 0.0
2017-May-19 17:00N 39°17' W 076°36'0 0.0
2017-May-19 16:30N 39°17' W 076°36'0 0.0
2017-May-19 15:55N 39°17' W 076°36'0 0.0
2017-May-19 15:29N 39°17' W 076°36'0 0.0
2017-May-19 15:00N 39°17' W 076°36'0 0.0
2017-May-19 14:00N 39°17' W 076°36'0 0.0
2017-May-19 13:30N 39°17' W 076°36'0 0.0
2017-May-19 13:01N 39°17' W 076°36'0 0.0
2017-May-19 12:30N 39°17' W 076°36'0 0.0
2017-May-19 12:00N 39°17' W 076°36'0 0.0
2017-May-19 11:30N 39°17' W 076°36'0 0.0
2017-May-19 11:00N 39°17' W 076°36'0 0.1
2017-May-19 10:31N 39°17' W 076°36'0 0.1
2017-May-19 10:00N 39°17' W 076°36'0 0.0
2017-May-19 09:30N 39°17' W 076°36'0 0.0
2017-May-19 09:01N 39°17' W 076°36'0 0.1
2017-May-19 08:30N 39°17' W 076°36'0 0.1
2017-May-19 08:00N 39°17' W 076°36'0 0.0
2017-May-19 07:30N 39°17' W 076°36'0 0.0
2017-May-19 07:00N 39°17' W 076°36'0 0.0
2017-May-19 06:30N 39°17' W 076°36'0 0.0
2017-May-19 06:00N 39°17' W 076°36'0 0.0
2017-May-19 05:31N 39°17' W 076°36'0 0.0
2017-May-19 05:00N 39°17' W 076°36'0 0.0
2017-May-19 04:30N 39°17' W 076°36'0 0.0
2017-May-19 04:00N 39°17' W 076°36'0 0.0
2017-May-19 03:30N 39°17' W 076°36'0 0.0
2017-May-19 03:00N 39°17' W 076°36'0 0.0
2017-May-19 02:30N 39°17' W 076°36'0 0.0
2017-May-19 02:00N 39°17' W 076°36'0 0.0
2017-May-19 01:30N 39°17' W 076°36'0 0.0
2017-May-19 01:00N 39°17' W 076°36'0 0.0
2017-May-19 00:30N 39°17' W 076°36'0 0.0
2017-May-19 00:00N 39°17' W 076°36'0 0.0
2017-May-18 23:30N 39°17' W 076°36'0 0.0
2017-May-18 23:00N 39°17' W 076°36'0 0.0
2017-May-18 22:30N 39°17' W 076°36'0 0.0
2017-May-18 22:00N 39°17' W 076°36'0 0.0
2017-May-18 21:30N 39°17' W 076°36'0 0.0
2017-May-18 20:43N 39°17' W 076°36'0 0.0
2017-May-18 20:31N 39°17' W 076°36'0 0.0
2017-May-18 19:59N 39°17' W 076°36'0 0.0
2017-May-18 19:30N 39°17' W 076°36'0 0.0
2017-May-18 19:00N 39°17' W 076°36'0 0.0
2017-May-18 18:30N 39°17' W 076°36'0 0.0
2017-May-18 18:00N 39°17' W 076°36'0 0.0
2017-May-18 17:27N 39°17' W 076°36'0 0.0
2017-May-18 17:00N 39°17' W 076°36'0 0.0
2017-May-18 16:30N 39°17' W 076°36'0 0.0
2017-May-18 16:00N 39°17' W 076°36'0 0.0
2017-May-18 15:30N 39°17' W 076°36'0 0.0
2017-May-18 15:00N 39°17' W 076°36'0 0.0
2017-May-18 14:00N 39°17' W 076°36'0 0.0
2017-May-18 13:30N 39°17' W 076°36'0 0.0
2017-May-18 13:00N 39°17' W 076°36'0 0.0
2017-May-18 12:30N 39°17' W 076°36'0 0.0
2017-May-18 12:00N 39°17' W 076°36'0 0.0
2017-May-18 11:31N 39°17' W 076°36'0 0.0
2017-May-18 11:00N 39°17' W 076°36'0 0.0
2017-May-18 10:30N 39°17' W 076°36'0 0.0
2017-May-18 10:00N 39°17' W 076°36'0 0.0
2017-May-18 09:30N 39°17' W 076°36'0 0.0
2017-May-18 09:00N 39°17' W 076°36'0 0.0
2017-May-18 08:30N 39°17' W 076°36'0 0.0
2017-May-18 08:00N 39°17' W 076°36'0 0.0
2017-May-18 07:30N 39°17' W 076°36'0 0.0
2017-May-18 07:00N 39°17' W 076°36'0 0.0
2017-May-18 06:30N 39°17' W 076°36'0 0.0
2017-May-18 06:01N 39°17' W 076°36'0 0.0
2017-May-18 05:31N 39°17' W 076°36'0 0.0
2017-May-18 05:00N 39°17' W 076°36'0 0.0
2017-May-18 04:30N 39°17' W 076°36'0 0.0
2017-May-18 04:00N 39°17' W 076°36'0 0.0
2017-May-18 03:30N 39°17' W 076°36'0 0.0
2017-May-18 03:00N 39°17' W 076°36'0 0.0
2017-May-18 02:31N 39°17' W 076°36'0 0.1
2017-May-18 02:00N 39°17' W 076°36'0 0.1
2017-May-18 01:30N 39°17' W 076°36'0 0.0
2017-May-18 01:00N 39°17' W 076°36'0 0.0
2017-May-18 00:30N 39°17' W 076°36'0 0.0
2017-May-18 00:00N 39°17' W 076°36'0 0.0
2017-May-17 23:31N 39°17' W 076°36'0 0.0
2017-May-17 23:00N 39°17' W 076°36'0 0.0
2017-May-17 22:30N 39°17' W 076°36'0 0.0
2017-May-17 22:00N 39°17' W 076°36'0 0.0
2017-May-17 21:30N 39°17' W 076°36'0 0.0
2017-May-17 21:00N 39°17' W 076°36'0 0.0
2017-May-17 20:30N 39°17' W 076°36'0 0.0
2017-May-17 20:00N 39°17' W 076°36'0 0.0
2017-May-17 19:30N 39°17' W 076°36'0 0.0
2017-May-17 19:00N 39°17' W 076°36'0 0.0
2017-May-17 18:31N 39°17' W 076°36'0 0.0
2017-May-17 18:00N 39°17' W 076°36'0 0.0
2017-May-17 17:30N 39°17' W 076°36'0 0.0
2017-May-17 17:00N 39°17' W 076°36'0 0.0
2017-May-17 16:30N 39°17' W 076°36'0 0.0
2017-May-17 16:00N 39°17' W 076°36'0 0.0
2017-May-17 15:30N 39°17' W 076°36'0 0.0
2017-May-17 15:01N 39°17' W 076°36'0 0.0
2017-May-17 14:30N 39°17' W 076°36'0 0.0
2017-May-17 13:30N 39°17' W 076°36'0 0.0
2017-May-17 13:01N 39°17' W 076°36'0 0.0
2017-May-17 12:30N 39°17' W 076°36'0 0.0
2017-May-17 12:00N 39°17' W 076°36'0 0.0
2017-May-17 11:31N 39°17' W 076°36'0 0.0
2017-May-17 11:00N 39°17' W 076°36'0 0.0
2017-May-17 10:30N 39°17' W 076°36'0 0.0
2017-May-17 10:01N 39°17' W 076°36'0 0.0
2017-May-17 09:31N 39°17' W 076°36'0 0.0
2017-May-17 09:01N 39°17' W 076°36'0 0.0
2017-May-17 08:30N 39°17' W 076°36'0 0.0
2017-May-17 08:00N 39°17' W 076°36'0 0.0
2017-May-17 07:30N 39°17' W 076°36'0 0.0
2017-May-17 07:00N 39°17' W 076°36'0 0.0
2017-May-17 06:31N 39°17' W 076°36'0 0.0
2017-May-17 06:01N 39°17' W 076°36'0 0.0
2017-May-17 05:30N 39°17' W 076°36'0 0.0
2017-May-17 05:00N 39°17' W 076°36'0 0.0
2017-May-17 04:30N 39°17' W 076°36'0 0.0
2017-May-17 04:00N 39°17' W 076°36'0 0.0
2017-May-17 03:30N 39°17' W 076°36'0 0.0
2017-May-17 03:01N 39°17' W 076°36'0 0.0
2017-May-17 02:30N 39°17' W 076°36'0 0.2
2017-May-17 02:00N 39°17' W 076°36'0 0.2
2017-May-17 01:30N 39°17' W 076°36'0 0.0
2017-May-17 01:00N 39°17' W 076°36'0 0.0
2017-May-17 00:30N 39°17' W 076°36'0 0.0
2017-May-17 00:00N 39°17' W 076°36'0 0.0
2017-May-16 23:30N 39°17' W 076°36'0 0.0
2017-May-16 23:00N 39°17' W 076°36'0 0.0
2017-May-16 22:30N 39°17' W 076°36'0 0.0
2017-May-16 22:00N 39°17' W 076°36'0 0.0
2017-May-16 21:30N 39°17' W 076°36'0 0.2
2017-May-16 21:00N 39°17' W 076°36'0 0.3
2017-May-16 20:30N 39°17' W 076°36'0 0.0
2017-May-16 20:00N 39°17' W 076°36'0 0.0
2017-May-16 19:30N 39°17' W 076°36'0 0.0
2017-May-16 19:00N 39°17' W 076°36'0 0.0
2017-May-16 18:30N 39°17' W 076°36'0 0.0
2017-May-16 18:00N 39°17' W 076°36'0 0.0
2017-May-16 17:30N 39°17' W 076°36'0 0.0
2017-May-16 16:59N 39°17' W 076°36'0 0.0
2017-May-16 16:31N 39°17' W 076°36'0 0.0
2017-May-16 16:00N 39°17' W 076°36'0 0.0
2017-May-16 15:30N 39°17' W 076°36'0 0.0
2017-May-16 15:01N 39°17' W 076°36'0 0.0
2017-May-16 14:30N 39°17' W 076°36'0 0.0
2017-May-16 13:30N 39°17' W 076°36'0 0.0
2017-May-16 13:00N 39°17' W 076°36'0 0.0
2017-May-16 12:31N 39°17' W 076°36'0 0.0
2017-May-16 12:00N 39°17' W 076°36'0 0.0
2017-May-16 11:30N 39°17' W 076°36'0 0.0
2017-May-16 11:01N 39°17' W 076°36'0 0.0
2017-May-16 10:31N 39°17' W 076°36'0 0.0
2017-May-16 10:00N 39°17' W 076°36'0 0.0
2017-May-16 09:30N 39°17' W 076°36'0 0.0
2017-May-16 09:01N 39°17' W 076°36'0 0.0
2017-May-16 08:30N 39°17' W 076°36'0 0.0
2017-May-16 08:00N 39°17' W 076°36'0 0.0
2017-May-16 07:30N 39°17' W 076°36'0 0.0
2017-May-16 07:00N 39°17' W 076°36'0 0.0
2017-May-16 06:30N 39°17' W 076°36'0 0.0
2017-May-16 06:01N 39°17' W 076°36'0 0.0
2017-May-16 05:30N 39°17' W 076°36'0 0.0
2017-May-16 05:01N 39°17' W 076°36'0 0.0
2017-May-16 04:30N 39°17' W 076°36'0 0.0
2017-May-16 04:00N 39°17' W 076°36'0 0.0
2017-May-16 03:30N 39°17' W 076°36'0 0.0
2017-May-16 03:01N 39°17' W 076°36'0 0.0
2017-May-16 02:30N 39°17' W 076°36'0 0.0
2017-May-16 02:01N 39°17' W 076°36'0 0.0
2017-May-16 01:30N 39°17' W 076°36'0 0.0
2017-May-16 00:53N 39°17' W 076°36'0 0.0
2017-May-16 00:28N 39°17' W 076°36'0 0.0
2017-May-15 23:49N 39°17' W 076°36'0 0.0
2017-May-15 23:21N 39°17' W 076°36'0 0.0
2017-May-15 22:46N 39°17' W 076°36'0 0.0
2017-May-15 22:22N 39°17' W 076°36'0 0.0
2017-May-15 21:59N 39°17' W 076°36'0 0.1
2017-May-15 21:03N 39°17' W 076°36'0 2.9
2017-May-15 21:00N 39°17' W 076°36'0 0.0
2017-May-15 20:16N 39°17' W 076°36'0 0.0
2017-May-15 13:47N 39°17' W 076°36'0 0.0
2017-May-15 13:29N 39°17' W 076°36'0 0.0
2017-May-15 12:50N 39°17' W 076°36'0 0.0
2017-May-15 11:50N 39°17' W 076°36'0 0.0
2017-May-15 11:30N 39°17' W 076°36'0 0.0
2017-May-15 10:53N 39°17' W 076°36'0 0.0
2017-May-15 10:30N 39°17' W 076°36'0 0.0
2017-May-15 09:58N 39°17' W 076°36'0 0.0
2017-May-15 08:47N 39°17' W 076°36'0 0.1
2017-May-15 08:25N 39°17' W 076°36'0 0.0
2017-May-15 08:00N 39°17' W 076°36'0 0.0
2017-May-15 07:15N 39°17' W 076°36'0 0.0
2017-May-15 07:00N 39°17' W 076°36'0 0.0
2017-May-15 06:28N 39°17' W 076°36'0 0.0
2017-May-15 05:58N 39°17' W 076°36'0 0.0
2017-May-15 05:25N 39°17' W 076°36'0 0.0
2017-May-15 04:53N 39°17' W 076°36'0 0.0
2017-May-15 04:29N 39°17' W 076°36'0 0.0
2017-May-15 03:58N 39°17' W 076°36'0 0.0
2017-May-15 03:30N 39°17' W 076°36'  
Track history (hours):
 
Tides and Currents Weather Stations Pressure Air Temp Water Temp Dewpoint Dewpoint Depression Visibility Wind Speed Wind Dir Waves Ship Positions

Bella Una

Owner: Bella Una, LLC, Fort Lauderdale, FL. More information available from US FCC via Universal Licensing System and Coast Guard Vessel Documentation Center.

Last reported at 2017-May-25 03:00 UTC. Time now 2017-May-25 03:08 UTC.
Position N 42°23' W 070°51'.

Length 39 m; draft 2.2 m.

Type: Pleasure craft. MMSI: 366609000.

Date/timePositionNaut miles runAvg speedWind from/ knotsBaromVisibWave heightAir tempDewpointWater temp
2017-May-25 03:00N 42°23' W 070°51'612.2
2017-May-25 02:30N 42°19' W 070°44'713.0
2017-May-25 01:57N 42°13' W 070°39'17310.9
2017-May-24 10:06N 40°45' W 073°58'114.3
2017-May-24 10:00N 40°44' W 073°58'611.5
2017-May-24 09:30N 40°39' W 074°03'813.9
2017-May-24 08:57N 40°32' W 074°01'4712.4
2017-May-24 05:10N 39°45' W 074°02'213.2
2017-May-24 04:59N 39°43' W 074°03'713.2
2017-May-24 04:30N 39°37' W 074°06'60 8.1
2017-May-23 21:06N 39°14' W 075°18'113.4
2017-May-23 21:00N 39°15' W 075°19'713.6
2017-May-23 20:30N 39°20' W 075°25'815.2
2017-May-23 20:00N 39°25' W 075°31'713.9
2017-May-23 19:30N 39°32' W 075°33'510.5
2017-May-23 19:00N 39°33' W 075°39'611.6
2017-May-23 18:30N 39°32' W 075°47'510.3
2017-May-23 18:01N 39°31' W 075°53'612.0
2017-May-23 17:30N 39°27' W 075°59'611.8
2017-May-23 17:00N 39°23' W 076°05'2611.2
2017-May-23 14:41N 39°01' W 076°22'410.7
2017-May-23 14:20N 38°58' W 076°25'3 3.1
2017-May-23 13:25N 38°58' W 076°29'0 0.0
2017-May-23 12:50N 38°58' W 076°29'0 0.0
2017-May-23 12:20N 38°58' W 076°29'0 0.0
2017-May-23 10:45N 38°58' W 076°29'0 0.0
2017-May-23 09:42N 38°58' W 076°29'0 0.0
2017-May-23 08:44N 38°58' W 076°29'0 0.0
2017-May-23 08:28N 38°58' W 076°29'0 0.0
2017-May-23 07:53N 38°58' W 076°29'0 0.0
2017-May-23 07:30N 38°58' W 076°29'0 0.0
2017-May-23 07:01N 38°58' W 076°29'0 0.0
2017-May-23 06:25N 38°58' W 076°29'0 0.0
2017-May-23 02:57N 38°58' W 076°29'0 0.0
2017-May-23 01:42N 38°58' W 076°29'0 0.0
2017-May-23 01:31N 38°58' W 076°29'0 0.0
2017-May-23 01:01N 38°58' W 076°29'0 0.0
2017-May-23 00:27N 38°58' W 076°29'0 0.0
2017-May-22 23:31N 38°58' W 076°29'0 0.0
2017-May-22 23:30N 38°58' W 076°29'0 0.0
2017-May-22 19:24N 38°58' W 076°29'0 0.0
2017-May-22 03:40N 38°58' W 076°29'0 0.0
2017-May-22 03:22N 38°58' W 076°29'0 0.0
2017-May-22 02:58N 38°58' W 076°29'0 0.0
2017-May-22 02:28N 38°58' W 076°29'0 0.0
2017-May-22 01:57N 38°58' W 076°29'0 0.0
2017-May-21 11:09N 38°58' W 076°29'0 0.0
2017-May-21 10:59N 38°58' W 076°29'0 0.0
2017-May-21 10:25N 38°58' W 076°29'0 0.0
2017-May-21 09:18N 38°58' W 076°29'0 0.0
2017-May-21 09:00N 38°58' W 076°29'0 0.0
2017-May-21 08:29N 38°58' W 076°29'1 0.0
2017-May-20 16:47N 38°59' W 076°28'3 8.3
2017-May-20 16:28N 38°58' W 076°25'610.2
2017-May-20 15:51N 39°04' W 076°24'810.4
2017-May-20 15:03N 39°12' W 076°29'211.4
2017-May-20 14:55N 39°12' W 076°31'410.1
2017-May-20 14:30N 39°15' W 076°34'2 2.4
2017-May-20 13:31N 39°17' W 076°36'0 0.0
2017-May-20 13:00N 39°17' W 076°36'0 0.0
2017-May-20 12:31N 39°17' W 076°36'0 0.0
2017-May-20 12:00N 39°17' W 076°36'0 0.0
2017-May-20 11:30N 39°17' W 076°36'0 0.0
2017-May-20 11:00N 39°17' W 076°36'0 0.0
2017-May-20 10:30N 39°17' W 076°36'0 0.0
2017-May-20 10:00N 39°17' W 076°36'0 0.0
2017-May-20 09:31N 39°17' W 076°36'0 0.0
2017-May-20 09:00N 39°17' W 076°36'0 0.0
2017-May-20 08:31N 39°17' W 076°36'0 0.0
2017-May-20 08:00N 39°17' W 076°36'0 0.0
2017-May-20 07:30N 39°17' W 076°36'0 0.0
2017-May-20 07:00N 39°17' W 076°36'0 0.0
2017-May-20 06:30N 39°17' W 076°36'0 0.0
2017-May-20 06:00N 39°17' W 076°36'0 0.0
2017-May-20 05:30N 39°17' W 076°36'0 0.0
2017-May-20 05:00N 39°17' W 076°36'0 0.0
2017-May-20 04:30N 39°17' W 076°36'0 0.0
2017-May-20 04:00N 39°17' W 076°36'0 0.0
2017-May-20 03:30N 39°17' W 076°36'0 0.0
2017-May-20 03:00N 39°17' W 076°36'0 0.0
2017-May-20 02:31N 39°17' W 076°36'0 0.0
2017-May-20 02:00N 39°17' W 076°36'0 0.0
2017-May-20 01:30N 39°17' W 076°36'0 0.0
2017-May-20 01:01N 39°17' W 076°36'0 0.0
2017-May-20 00:30N 39°17' W 076°36'0 0.0
2017-May-20 00:00N 39°17' W 076°36'0 0.0
2017-May-19 23:29N 39°17' W 076°36'0 0.0
2017-May-19 23:00N 39°17' W 076°36'0 0.0
2017-May-19 22:30N 39°17' W 076°36'0 0.0
2017-May-19 22:00N 39°17' W 076°36'0 0.0
2017-May-19 21:30N 39°17' W 076°36'0 0.0
2017-May-19 20:58N 39°17' W 076°36'0 0.0
2017-May-19 20:30N 39°17' W 076°36'0 0.0
2017-May-19 20:00N 39°17' W 076°36'0 0.0
2017-May-19 19:30N 39°17' W 076°36'0 0.0
2017-May-19 19:00N 39°17' W 076°36'0 0.0
2017-May-19 18:30N 39°17' W 076°36'0 0.0
2017-May-19 18:00N 39°17' W 076°36'0 0.0
2017-May-19 17:30N 39°17' W 076°36'0 0.0
2017-May-19 17:00N 39°17' W 076°36'0 0.0
2017-May-19 16:30N 39°17' W 076°36'0 0.0
2017-May-19 15:55N 39°17' W 076°36'0 0.0
2017-May-19 15:29N 39°17' W 076°36'0 0.0
2017-May-19 15:00N 39°17' W 076°36'0 0.0
2017-May-19 14:00N 39°17' W 076°36'0 0.0
2017-May-19 13:30N 39°17' W 076°36'0 0.0
2017-May-19 13:01N 39°17' W 076°36'0 0.0
2017-May-19 12:30N 39°17' W 076°36'0 0.0
2017-May-19 12:00N 39°17' W 076°36'0 0.0
2017-May-19 11:30N 39°17' W 076°36'0 0.0
2017-May-19 11:00N 39°17' W 076°36'0 0.1
2017-May-19 10:31N 39°17' W 076°36'0 0.1
2017-May-19 10:00N 39°17' W 076°36'0 0.0
2017-May-19 09:30N 39°17' W 076°36'0 0.0
2017-May-19 09:01N 39°17' W 076°36'0 0.1
2017-May-19 08:30N 39°17' W 076°36'0 0.1
2017-May-19 08:00N 39°17' W 076°36'0 0.0
2017-May-19 07:30N 39°17' W 076°36'0 0.0
2017-May-19 07:00N 39°17' W 076°36'0 0.0
2017-May-19 06:30N 39°17' W 076°36'0 0.0
2017-May-19 06:00N 39°17' W 076°36'0 0.0
2017-May-19 05:31N 39°17' W 076°36'0 0.0
2017-May-19 05:00N 39°17' W 076°36'0 0.0
2017-May-19 04:30N 39°17' W 076°36'0 0.0
2017-May-19 04:00N 39°17' W 076°36'0 0.0
2017-May-19 03:30N 39°17' W 076°36'0 0.0
2017-May-19 03:00N 39°17' W 076°36'0 0.0
2017-May-19 02:30N 39°17' W 076°36'0 0.0
2017-May-19 02:00N 39°17' W 076°36'0 0.0
2017-May-19 01:30N 39°17' W 076°36'0 0.0
2017-May-19 01:00N 39°17' W 076°36'0 0.0
2017-May-19 00:30N 39°17' W 076°36'0 0.0
2017-May-19 00:00N 39°17' W 076°36'0 0.0
2017-May-18 23:30N 39°17' W 076°36'0 0.0
2017-May-18 23:00N 39°17' W 076°36'0 0.0
2017-May-18 22:30N 39°17' W 076°36'0 0.0
2017-May-18 22:00N 39°17' W 076°36'0 0.0
2017-May-18 21:30N 39°17' W 076°36'0 0.0
2017-May-18 20:43N 39°17' W 076°36'0 0.0
2017-May-18 20:31N 39°17' W 076°36'0 0.0
2017-May-18 19:59N 39°17' W 076°36'0 0.0
2017-May-18 19:30N 39°17' W 076°36'0 0.0
2017-May-18 19:00N 39°17' W 076°36'0 0.0
2017-May-18 18:30N 39°17' W 076°36'0 0.0
2017-May-18 18:00N 39°17' W 076°36'0 0.0
2017-May-18 17:27N 39°17' W 076°36'0 0.0
2017-May-18 17:00N 39°17' W 076°36'0 0.0
2017-May-18 16:30N 39°17' W 076°36'0 0.0
2017-May-18 16:00N 39°17' W 076°36'0 0.0
2017-May-18 15:30N 39°17' W 076°36'0 0.0
2017-May-18 15:00N 39°17' W 076°36'0 0.0
2017-May-18 14:00N 39°17' W 076°36'0 0.0
2017-May-18 13:30N 39°17' W 076°36'0 0.0
2017-May-18 13:00N 39°17' W 076°36'0 0.0
2017-May-18 12:30N 39°17' W 076°36'0 0.0
2017-May-18 12:00N 39°17' W 076°36'0 0.0
2017-May-18 11:31N 39°17' W 076°36'0 0.0
2017-May-18 11:00N 39°17' W 076°36'0 0.0
2017-May-18 10:30N 39°17' W 076°36'0 0.0
2017-May-18 10:00N 39°17' W 076°36'0 0.0
2017-May-18 09:30N 39°17' W 076°36'0 0.0
2017-May-18 09:00N 39°17' W 076°36'0 0.0
2017-May-18 08:30N 39°17' W 076°36'0 0.0
2017-May-18 08:00N 39°17' W 076°36'0 0.0
2017-May-18 07:30N 39°17' W 076°36'0 0.0
2017-May-18 07:00N 39°17' W 076°36'0 0.0
2017-May-18 06:30N 39°17' W 076°36'0 0.0
2017-May-18 06:01N 39°17' W 076°36'0 0.0
2017-May-18 05:31N 39°17' W 076°36'0 0.0
2017-May-18 05:00N 39°17' W 076°36'0 0.0
2017-May-18 04:30N 39°17' W 076°36'0 0.0
2017-May-18 04:00N 39°17' W 076°36'0 0.0
2017-May-18 03:30N 39°17' W 076°36'0 0.0
2017-May-18 03:00N 39°17' W 076°36'0 0.0
2017-May-18 02:31N 39°17' W 076°36'0 0.1
2017-May-18 02:00N 39°17' W 076°36'0 0.1
2017-May-18 01:30N 39°17' W 076°36'0 0.0
2017-May-18 01:00N 39°17' W 076°36'0 0.0
2017-May-18 00:30N 39°17' W 076°36'0 0.0
2017-May-18 00:00N 39°17' W 076°36'0 0.0
2017-May-17 23:31N 39°17' W 076°36'0 0.0
2017-May-17 23:00N 39°17' W 076°36'0 0.0
2017-May-17 22:30N 39°17' W 076°36'0 0.0
2017-May-17 22:00N 39°17' W 076°36'0 0.0
2017-May-17 21:30N 39°17' W 076°36'0 0.0
2017-May-17 21:00N 39°17' W 076°36'0 0.0
2017-May-17 20:30N 39°17' W 076°36'0 0.0
2017-May-17 20:00N 39°17' W 076°36'0 0.0
2017-May-17 19:30N 39°17' W 076°36'0 0.0
2017-May-17 19:00N 39°17' W 076°36'0 0.0
2017-May-17 18:31N 39°17' W 076°36'0 0.0
2017-May-17 18:00N 39°17' W 076°36'0 0.0
2017-May-17 17:30N 39°17' W 076°36'0 0.0
2017-May-17 17:00N 39°17' W 076°36'0 0.0
2017-May-17 16:30N 39°17' W 076°36'0 0.0
2017-May-17 16:00N 39°17' W 076°36'0 0.0
2017-May-17 15:30N 39°17' W 076°36'0 0.0
2017-May-17 15:01N 39°17' W 076°36'0 0.0
2017-May-17 14:30N 39°17' W 076°36'0 0.0
2017-May-17 13:30N 39°17' W 076°36'0 0.0
2017-May-17 13:01N 39°17' W 076°36'0 0.0
2017-May-17 12:30N 39°17' W 076°36'0 0.0
2017-May-17 12:00N 39°17' W 076°36'0 0.0
2017-May-17 11:31N 39°17' W 076°36'0 0.0
2017-May-17 11:00N 39°17' W 076°36'0 0.0
2017-May-17 10:30N 39°17' W 076°36'0 0.0
2017-May-17 10:01N 39°17' W 076°36'0 0.0
2017-May-17 09:31N 39°17' W 076°36'0 0.0
2017-May-17 09:01N 39°17' W 076°36'0 0.0
2017-May-17 08:30N 39°17' W 076°36'0 0.0
2017-May-17 08:00N 39°17' W 076°36'0 0.0
2017-May-17 07:30N 39°17' W 076°36'0 0.0
2017-May-17 07:00N 39°17' W 076°36'0 0.0
2017-May-17 06:31N 39°17' W 076°36'0 0.0
2017-May-17 06:01N 39°17' W 076°36'0 0.0
2017-May-17 05:30N 39°17' W 076°36'0 0.0
2017-May-17 05:00N 39°17' W 076°36'0 0.0
2017-May-17 04:30N 39°17' W 076°36'0 0.0
2017-May-17 04:00N 39°17' W 076°36'0 0.0
2017-May-17 03:30N 39°17' W 076°36'0 0.0
2017-May-17 03:01N 39°17' W 076°36'0 0.0
2017-May-17 02:30N 39°17' W 076°36'0 0.2
2017-May-17 02:00N 39°17' W 076°36'0 0.2
2017-May-17 01:30N 39°17' W 076°36'0 0.0
2017-May-17 01:00N 39°17' W 076°36'0 0.0
2017-May-17 00:30N 39°17' W 076°36'0 0.0
2017-May-17 00:00N 39°17' W 076°36'0 0.0
2017-May-16 23:30N 39°17' W 076°36'0 0.0
2017-May-16 23:00N 39°17' W 076°36'0 0.0
2017-May-16 22:30N 39°17' W 076°36'0 0.0
2017-May-16 22:00N 39°17' W 076°36'0 0.0
2017-May-16 21:30N 39°17' W 076°36'0 0.2
2017-May-16 21:00N 39°17' W 076°36'0 0.3
2017-May-16 20:30N 39°17' W 076°36'0 0.0
2017-May-16 20:00N 39°17' W 076°36'0 0.0
2017-May-16 19:30N 39°17' W 076°36'0 0.0
2017-May-16 19:00N 39°17' W 076°36'0 0.0
2017-May-16 18:30N 39°17' W 076°36'0 0.0
2017-May-16 18:00N 39°17' W 076°36'0 0.0
2017-May-16 17:30N 39°17' W 076°36'0 0.0
2017-May-16 16:59N 39°17' W 076°36'0 0.0
2017-May-16 16:31N 39°17' W 076°36'0 0.0
2017-May-16 16:00N 39°17' W 076°36'0 0.0
2017-May-16 15:30N 39°17' W 076°36'0 0.0
2017-May-16 15:01N 39°17' W 076°36'0 0.0
2017-May-16 14:30N 39°17' W 076°36'0 0.0
2017-May-16 13:30N 39°17' W 076°36'0 0.0
2017-May-16 13:00N 39°17' W 076°36'0 0.0
2017-May-16 12:31N 39°17' W 076°36'0 0.0
2017-May-16 12:00N 39°17' W 076°36'0 0.0
2017-May-16 11:30N 39°17' W 076°36'0 0.0
2017-May-16 11:01N 39°17' W 076°36'0 0.0
2017-May-16 10:31N 39°17' W 076°36'0 0.0
2017-May-16 10:00N 39°17' W 076°36'0 0.0
2017-May-16 09:30N 39°17' W 076°36'0 0.0
2017-May-16 09:01N 39°17' W 076°36'0 0.0
2017-May-16 08:30N 39°17' W 076°36'0 0.0
2017-May-16 08:00N 39°17' W 076°36'0 0.0
2017-May-16 07:30N 39°17' W 076°36'0 0.0
2017-May-16 07:00N 39°17' W 076°36'0 0.0
2017-May-16 06:30N 39°17' W 076°36'0 0.0
2017-May-16 06:01N 39°17' W 076°36'0 0.0
2017-May-16 05:30N 39°17' W 076°36'0 0.0
2017-May-16 05:01N 39°17' W 076°36'0 0.0
2017-May-16 04:30N 39°17' W 076°36'0 0.0
2017-May-16 04:00N 39°17' W 076°36'0 0.0
2017-May-16 03:30N 39°17' W 076°36'0 0.0
2017-May-16 03:01N 39°17' W 076°36'0 0.0
2017-May-16 02:30N 39°17' W 076°36'0 0.0
2017-May-16 02:01N 39°17' W 076°36'0 0.0
2017-May-16 01:30N 39°17' W 076°36'0 0.0
2017-May-16 00:53N 39°17' W 076°36'0 0.0
2017-May-16 00:28N 39°17' W 076°36'0 0.0
2017-May-15 23:49N 39°17' W 076°36'0 0.0
2017-May-15 23:21N 39°17' W 076°36'0 0.0
2017-May-15 22:46N 39°17' W 076°36'0 0.0
2017-May-15 22:22N 39°17' W 076°36'0 0.0
2017-May-15 21:59N 39°17' W 076°36'0 0.1
2017-May-15 21:03N 39°17' W 076°36'0 2.9
2017-May-15 21:00N 39°17' W 076°36'0 0.0
2017-May-15 20:16N 39°17' W 076°36'0 0.0
2017-May-15 13:47N 39°17' W 076°36'0 0.0
2017-May-15 13:29N 39°17' W 076°36'0 0.0
2017-May-15 12:50N 39°17' W 076°36'0 0.0
2017-May-15 11:50N 39°17' W 076°36'0 0.0
2017-May-15 11:30N 39°17' W 076°36'0 0.0
2017-May-15 10:53N 39°17' W 076°36'0 0.0
2017-May-15 10:30N 39°17' W 076°36'0 0.0
2017-May-15 09:58N 39°17' W 076°36'0 0.0
2017-May-15 08:47N 39°17' W 076°36'0 0.1
2017-May-15 08:25N 39°17' W 076°36'0 0.0
2017-May-15 08:00N 39°17' W 076°36'0 0.0
2017-May-15 07:15N 39°17' W 076°36'0 0.0
2017-May-15 07:00N 39°17' W 076°36'0 0.0
2017-May-15 06:28N 39°17' W 076°36'0 0.0
2017-May-15 05:58N 39°17' W 076°36'0 0.0
2017-May-15 05:25N 39°17' W 076°36'0 0.0
2017-May-15 04:53N 39°17' W 076°36'0 0.0
2017-May-15 04:29N 39°17' W 076°36'0 0.0
2017-May-15 03:58N 39°17' W 076°36'0 0.0
2017-May-15 03:30N 39°17' W 076°36'  

Dump ship's entire track history